Time;durP1;ratioP1;P1;durP2;ratioP2;P2;SDS_P1;SDS_P2;PMS_P1;PMS_P2;Temp;Humidity;BMP_temperature;BMP_pressure;BME280_temperature;BME280_humidity;BME280_pressure;Samples;Min_cycle;Max_cycle;Signal;HPM_P1;HPM_P2
2022/02/16 00:00:26;;;;;;;;;;;-0.30;99.90;;;;;;4188848;28;19985;-61
2022/02/16 00:02:27;;;;;;;;;;;-0.30;99.90;;;;;;4189118;28;19916;-58
2022/02/16 00:04:28;;;;;;;;;;;-0.30;99.90;;;;;;4187595;28;19922;-63
2022/02/16 00:06:29;;;;;;;;;;;-0.40;99.90;;;;;;4187441;28;19955;-63
2022/02/16 00:08:30;;;;;;;;;;;-0.40;99.90;;;;;;4188113;28;19932;-61
2022/02/16 00:10:31;;;;;;;;;;;-0.40;99.90;;;;;;4186922;28;19916;-54
2022/02/16 00:12:32;;;;;;;;;;;-0.50;99.90;;;;;;4175208;28;20738;-52
2022/02/16 00:14:33;;;;;;;;;;;-0.60;99.90;;;;;;4173466;28;19917;-68
2022/02/16 00:16:34;;;;;;;;;;;-0.60;99.90;;;;;;4173767;28;20393;-54
2022/02/16 00:18:36;;;;;;;;;;;-0.60;99.90;;;;;;4173189;28;20431;-56
2022/02/16 00:20:36;;;;;;;;;;;-0.70;99.90;;;;;;4183852;28;19912;-64
2022/02/16 00:22:38;;;;;;;;;;;-0.70;99.90;;;;;;4179390;28;19920;-58
2022/02/16 00:24:38;;;;;;;;;;;-0.70;99.90;;;;;;4187621;28;19963;-60
2022/02/16 00:26:39;;;;;;;;;;;-0.80;99.90;;;;;;4188944;28;19913;-65
2022/02/16 00:28:40;;;;;;;;;;;-0.80;99.90;;;;;;4188390;28;20327;-66
2022/02/16 00:30:41;;;;;;;;;;;-0.90;99.90;;;;;;4186573;28;19964;-57
2022/02/16 00:32:42;;;;;;;;;;;-0.90;99.90;;;;;;4189300;28;19958;-63
2022/02/16 00:34:43;;;;;;;;;;;-0.90;99.90;;;;;;4185117;28;20432;-62
2022/02/16 00:36:44;;;;;;;;;;;-1.00;99.90;;;;;;4172330;28;19921;-57
2022/02/16 00:38:45;;;;;;;;;;;-1.00;99.90;;;;;;4188883;28;20292;-60
2022/02/16 00:40:46;;;;;;;;;;;-1.00;99.90;;;;;;4180995;28;19940;-56
2022/02/16 00:42:47;;;;;;;;;;;-1.00;99.90;;;;;;4173910;28;19921;-61
2022/02/16 00:44:47;;;;;;;;;;;-1.00;99.90;;;;;;4191367;28;19917;-72
2022/02/16 00:46:48;;;;;;;;;;;-1.00;99.90;;;;;;4192317;28;20705;-63
2022/02/16 00:48:49;;;;;;;;;;;-0.90;99.90;;;;;;4189873;28;19935;-52
2022/02/16 00:50:51;;;;;;;;;;;-0.90;99.90;;;;;;4190193;28;20674;-52
2022/02/16 00:52:52;;;;;;;;;;;-1.00;99.90;;;;;;4185266;28;19917;-56
2022/02/16 00:54:52;;;;;;;;;;;-0.90;99.90;;;;;;4175284;28;19943;-55
2022/02/16 00:56:53;;;;;;;;;;;-0.90;99.90;;;;;;4159356;28;19917;-52
2022/02/16 00:58:54;;;;;;;;;;;-1.00;99.90;;;;;;4191102;28;20479;-61
2022/02/16 01:00:55;;;;;;;;;;;-0.90;99.90;;;;;;4191940;28;20378;-57
2022/02/16 01:02:56;;;;;;;;;;;-0.90;99.90;;;;;;4189584;28;19921;-61
2022/02/16 01:04:57;;;;;;;;;;;-0.90;99.90;;;;;;4191514;28;19919;-55
2022/02/16 01:07:00;;;;;;;;;;;-0.80;99.90;;;;;;4171754;28;19917;-51
2022/02/16 01:09:01;;;;;;;;;;;-0.80;99.90;;;;;;4191447;28;19990;-54
2022/02/16 01:11:02;;;;;;;;;;;-0.80;99.90;;;;;;4191235;28;19974;-55
2022/02/16 01:13:03;;;;;;;;;;;-0.80;99.90;;;;;;4177414;28;19967;-65
2022/02/16 01:15:04;;;;;;;;;;;-0.80;99.90;;;;;;4161004;28;20726;-68
2022/02/16 01:17:05;;;;;;;;;;;-0.70;99.90;;;;;;4189308;28;19916;-60
2022/02/16 01:19:06;;;;;;;;;;;-0.70;99.90;;;;;;4174853;28;19971;-52
2022/02/16 01:21:08;;;;;;;;;;;-0.70;99.90;;;;;;4188843;28;19909;-53
2022/02/16 01:23:09;;;;;;;;;;;-0.70;99.90;;;;;;4190999;28;19908;-53
2022/02/16 01:25:10;;;;;;;;;;;-0.80;99.90;;;;;;4176397;28;19967;-58
2022/02/16 01:27:11;;;;;;;;;;;-0.90;99.90;;;;;;4188868;28;19913;-57
2022/02/16 01:29:12;;;;;;;;;;;-1.00;99.90;;;;;;4184958;28;19916;-57
2022/02/16 01:31:13;;;;;;;;;;;-1.00;99.90;;;;;;4174824;28;20000;-56
2022/02/16 01:33:14;;;;;;;;;;;-1.00;99.90;;;;;;4174987;28;19967;-59
2022/02/16 01:35:14;;;;;;;;;;;-1.00;99.90;;;;;;4174618;28;19913;-56
2022/02/16 01:37:15;;;;;;;;;;;-1.00;99.90;;;;;;4174797;28;20293;-57
2022/02/16 01:39:16;;;;;;;;;;;-0.90;99.90;;;;;;4175613;28;19917;-54
2022/02/16 01:41:18;;;;;;;;;;;-0.90;99.90;;;;;;4182978;28;19916;-52
2022/02/16 01:43:18;;;;;;;;;;;-0.90;99.90;;;;;;4160083;28;19948;-54
2022/02/16 01:45:26;;;;;;;;;;;-0.80;99.90;;;;;;4173659;28;19913;-53
2022/02/16 01:47:27;;;;;;;;;;;-0.80;99.90;;;;;;4190672;28;20331;-63
2022/02/16 01:49:28;;;;;;;;;;;-0.80;99.90;;;;;;4186651;28;20389;-53
2022/02/16 01:51:29;;;;;;;;;;;-0.80;99.90;;;;;;4175825;28;19994;-59
2022/02/16 01:53:30;;;;;;;;;;;-0.80;99.90;;;;;;4174051;28;20436;-66
2022/02/16 01:55:31;;;;;;;;;;;-0.80;99.90;;;;;;4173957;28;19917;-53
2022/02/16 01:57:34;;;;;;;;;;;-0.80;99.90;;;;;;4188056;28;20339;-55
2022/02/16 01:59:35;;;;;;;;;;;-0.80;99.90;;;;;;4187565;28;19972;-55
2022/02/16 02:01:38;;;;;;;;;;;-0.80;99.90;;;;;;4177628;28;19920;-61
2022/02/16 02:03:39;;;;;;;;;;;-0.80;99.90;;;;;;4190835;28;19917;-53
2022/02/16 02:05:44;;;;;;;;;;;-0.90;99.90;;;;;;4190624;28;19912;-59
2022/02/16 02:07:45;;;;;;;;;;;-0.90;99.90;;;;;;4190042;28;19981;-53
2022/02/16 02:09:48;;;;;;;;;;;-0.90;99.90;;;;;;4189164;28;19954;-62
2022/02/16 02:11:49;;;;;;;;;;;-0.90;99.90;;;;;;4189473;28;19962;-60
2022/02/16 02:13:56;;;;;;;;;;;-0.90;99.90;;;;;;4190304;28;19912;-62
2022/02/16 02:15:57;;;;;;;;;;;-0.90;99.90;;;;;;4184907;28;19947;-63
2022/02/16 02:17:59;;;;;;;;;;;-0.90;99.90;;;;;;4174441;28;20023;-62
2022/02/16 02:20:00;;;;;;;;;;;-1.00;99.90;;;;;;4179569;28;19954;-51
2022/02/16 02:22:02;;;;;;;;;;;-0.90;99.90;;;;;;4190630;28;19916;-57
2022/02/16 02:24:03;;;;;;;;;;;-0.90;99.90;;;;;;4185327;28;20005;-53
2022/02/16 02:26:04;;;;;;;;;;;-0.90;99.90;;;;;;4190489;28;19913;-54
2022/02/16 02:28:05;;;;;;;;;;;-0.90;99.90;;;;;;4189662;28;19989;-56
2022/02/16 02:30:06;;;;;;;;;;;-0.90;99.90;;;;;;4190458;28;19935;-60
2022/02/16 02:32:07;;;;;;;;;;;-0.80;99.90;;;;;;4190104;28;19909;-60
2022/02/16 02:34:08;;;;;;;;;;;-0.90;99.90;;;;;;4178553;28;20811;-55
2022/02/16 02:36:09;;;;;;;;;;;-0.90;99.90;;;;;;4174085;28;19935;-51
2022/02/16 02:38:10;;;;;;;;;;;-0.90;99.90;;;;;;4174782;28;19916;-57
2022/02/16 02:40:11;;;;;;;;;;;-1.00;99.90;;;;;;4181955;28;19927;-58
2022/02/16 02:42:11;;;;;;;;;;;-1.10;99.90;;;;;;4189267;28;19908;-55
2022/02/16 02:44:12;;;;;;;;;;;-1.10;99.90;;;;;;4180815;28;20393;-53
2022/02/16 02:46:14;;;;;;;;;;;-1.10;99.90;;;;;;4177380;28;19924;-62
2022/02/16 02:48:15;;;;;;;;;;;-1.20;99.90;;;;;;4190150;28;20009;-51
2022/02/16 02:50:16;;;;;;;;;;;-1.20;99.90;;;;;;4171270;28;19921;-62
2022/02/16 02:52:17;;;;;;;;;;;-1.30;99.90;;;;;;4183851;28;20305;-58
2022/02/16 02:54:18;;;;;;;;;;;-1.30;99.90;;;;;;4173717;28;19963;-54
2022/02/16 02:56:19;;;;;;;;;;;-1.30;99.90;;;;;;4173290;28;19958;-57
2022/02/16 02:58:20;;;;;;;;;;;-1.30;99.90;;;;;;4178148;28;19917;-59
2022/02/16 03:00:21;;;;;;;;;;;-1.30;99.90;;;;;;4166322;28;19968;-56
2022/02/16 03:02:23;;;;;;;;;;;-1.30;99.90;;;;;;4173443;28;19948;-56
2022/02/16 03:04:24;;;;;;;;;;;-1.20;99.90;;;;;;4173205;28;19913;-55
2022/02/16 03:06:25;;;;;;;;;;;-1.20;99.90;;;;;;4172116;28;20418;-55
2022/02/16 03:08:26;;;;;;;;;;;-1.10;99.90;;;;;;4173623;28;19924;-55
2022/02/16 03:10:27;;;;;;;;;;;-1.10;99.90;;;;;;4173375;28;19957;-56
2022/02/16 03:12:28;;;;;;;;;;;-1.00;99.90;;;;;;4189283;28;19912;-67
2022/02/16 03:14:28;;;;;;;;;;;-1.00;99.90;;;;;;4189016;28;19952;-69
2022/02/16 03:16:29;;;;;;;;;;;-1.10;99.90;;;;;;4188265;28;20034;-54
2022/02/16 03:18:30;;;;;;;;;;;-1.20;99.90;;;;;;4174459;28;19916;-53
2022/02/16 03:20:31;;;;;;;;;;;-1.30;99.90;;;;;;4182809;28;19930;-58
2022/02/16 03:22:33;;;;;;;;;;;-1.30;99.90;;;;;;4175667;28;19956;-55
2022/02/16 03:24:34;;;;;;;;;;;-1.40;99.90;;;;;;4172316;28;19913;-57
2022/02/16 03:26:35;;;;;;;;;;;-1.50;99.90;;;;;;4173089;28;19913;-57
2022/02/16 03:28:36;;;;;;;;;;;-1.40;99.90;;;;;;4179249;28;19970;-58
2022/02/16 03:30:37;;;;;;;;;;;-1.30;99.90;;;;;;4189067;28;20261;-63
2022/02/16 03:32:40;;;;;;;;;;;-1.30;99.90;;;;;;4186561;28;19927;-51
2022/02/16 03:34:41;;;;;;;;;;;-1.30;99.90;;;;;;4187665;28;20239;-56
2022/02/16 03:36:42;;;;;;;;;;;-1.30;99.90;;;;;;4188754;28;20270;-57
2022/02/16 03:38:43;;;;;;;;;;;-1.30;99.90;;;;;;4189134;28;20023;-66
2022/02/16 03:40:43;;;;;;;;;;;-1.30;99.90;;;;;;4189208;28;19954;-57
2022/02/16 03:42:44;;;;;;;;;;;-1.30;99.90;;;;;;4170107;28;20039;-56
2022/02/16 03:44:45;;;;;;;;;;;-1.30;99.90;;;;;;4176280;28;19977;-68
2022/02/16 03:46:46;;;;;;;;;;;-1.20;99.90;;;;;;4172592;28;19912;-71
2022/02/16 03:48:47;;;;;;;;;;;-1.20;99.90;;;;;;4174192;28;20360;-61
2022/02/16 03:50:48;;;;;;;;;;;-1.10;99.90;;;;;;4173220;28;19959;-51
2022/02/16 03:52:50;;;;;;;;;;;-1.10;99.90;;;;;;4173231;28;19916;-62
2022/02/16 03:54:53;;;;;;;;;;;-1.00;99.90;;;;;;4189038;28;20761;-60
2022/02/16 03:56:54;;;;;;;;;;;-1.00;99.90;;;;;;4171880;28;19913;-56
2022/02/16 03:58:55;;;;;;;;;;;-1.00;99.90;;;;;;4187106;28;19916;-54
2022/02/16 04:00:56;;;;;;;;;;;-1.00;99.90;;;;;;4169103;28;20335;-70
2022/02/16 04:02:57;;;;;;;;;;;-0.90;99.90;;;;;;4187624;28;19954;-59
2022/02/16 04:04:58;;;;;;;;;;;-0.80;99.90;;;;;;4172027;28;19920;-55
2022/02/16 04:06:58;;;;;;;;;;;-0.80;99.90;;;;;;4172303;28;19917;-58
2022/02/16 04:08:59;;;;;;;;;;;-0.80;99.90;;;;;;4173454;28;19959;-56
2022/02/16 04:11:00;;;;;;;;;;;-0.80;99.90;;;;;;4173914;28;19916;-63
2022/02/16 04:13:01;;;;;;;;;;;-0.80;99.90;;;;;;4182499;28;19931;-64
2022/02/16 04:15:03;;;;;;;;;;;-0.70;99.90;;;;;;4180538;28;19913;-53
2022/02/16 04:17:03;;;;;;;;;;;-0.70;99.90;;;;;;4176269;28;20022;-60
2022/02/16 04:19:05;;;;;;;;;;;-0.70;99.90;;;;;;4191086;28;20710;-62
2022/02/16 04:21:06;;;;;;;;;;;-0.70;99.90;;;;;;4189886;28;19928;-56
2022/02/16 04:23:09;;;;;;;;;;;-0.80;99.90;;;;;;4192665;28;20712;-52
2022/02/16 04:25:10;;;;;;;;;;;-0.80;99.90;;;;;;4191789;28;19958;-52
2022/02/16 04:27:11;;;;;;;;;;;-0.80;99.90;;;;;;4190798;28;20335;-58
2022/02/16 04:29:12;;;;;;;;;;;-0.80;99.90;;;;;;4174017;28;19920;-69
2022/02/16 04:31:13;;;;;;;;;;;-0.80;99.90;;;;;;4175769;28;19909;-60
2022/02/16 04:33:14;;;;;;;;;;;-0.90;99.90;;;;;;4179403;28;19912;-59
2022/02/16 04:35:15;;;;;;;;;;;-0.90;99.90;;;;;;4190267;28;20775;-58
2022/02/16 04:37:16;;;;;;;;;;;-0.90;99.90;;;;;;4191714;28;19920;-64
2022/02/16 04:39:17;;;;;;;;;;;-0.90;99.90;;;;;;4190608;28;19913;-54
2022/02/16 04:41:17;;;;;;;;;;;-0.90;99.90;;;;;;4180389;28;19974;-56
2022/02/16 04:43:18;;;;;;;;;;;-0.90;99.90;;;;;;4157323;28;19909;-62
2022/02/16 04:45:19;;;;;;;;;;;-0.90;99.90;;;;;;4176249;28;19931;-55
2022/02/16 04:47:20;;;;;;;;;;;-0.80;99.90;;;;;;4189766;28;19913;-61
2022/02/16 04:49:21;;;;;;;;;;;-0.80;99.90;;;;;;4191904;28;19920;-59
2022/02/16 04:51:22;;;;;;;;;;;-0.70;99.90;;;;;;4188662;28;19916;-55
2022/02/16 04:53:23;;;;;;;;;;;-0.60;99.90;;;;;;4190614;28;19912;-53
2022/02/16 04:55:25;;;;;;;;;;;-0.60;99.90;;;;;;4190500;28;20027;-57
2022/02/16 04:57:26;;;;;;;;;;;-0.50;99.90;;;;;;4189141;28;19950;-56
2022/02/16 04:59:27;;;;;;;;;;;-0.50;99.90;;;;;;4174334;28;20347;-58
2022/02/16 05:01:28;;;;;;;;;;;-0.50;99.90;;;;;;4175146;28;19927;-58
2022/02/16 05:03:29;;;;;;;;;;;-0.50;99.90;;;;;;4174967;28;19940;-55
2022/02/16 05:05:30;;;;;;;;;;;-0.50;99.90;;;;;;4179551;28;20363;-56
2022/02/16 05:07:30;;;;;;;;;;;-0.50;99.90;;;;;;4190666;28;20380;-58
2022/02/16 05:09:31;;;;;;;;;;;-0.40;99.90;;;;;;4175411;28;19925;-54
2022/02/16 05:11:32;;;;;;;;;;;-0.50;99.90;;;;;;4173600;28;19987;-60
2022/02/16 05:13:34;;;;;;;;;;;-0.50;99.90;;;;;;4187355;28;19916;-56
2022/02/16 05:15:35;;;;;;;;;;;-0.50;99.90;;;;;;4190945;28;19920;-52
2022/02/16 05:17:36;;;;;;;;;;;-0.50;99.90;;;;;;4181886;28;19917;-65
2022/02/16 05:19:37;;;;;;;;;;;-0.50;99.90;;;;;;4177107;28;19990;-51
2022/02/16 05:21:37;;;;;;;;;;;-0.50;99.90;;;;;;4174429;28;19928;-56
2022/02/16 05:23:38;;;;;;;;;;;-0.50;99.90;;;;;;4189582;28;20463;-55
2022/02/16 05:25:40;;;;;;;;;;;-0.50;99.90;;;;;;4186952;28;20451;-60
2022/02/16 05:27:40;;;;;;;;;;;-0.40;99.90;;;;;;4191686;28;19985;-62
2022/02/16 05:29:42;;;;;;;;;;;-0.40;99.90;;;;;;4171561;28;19924;-57
2022/02/16 05:31:43;;;;;;;;;;;-0.30;99.90;;;;;;4190287;28;20015;-51
2022/02/16 05:33:44;;;;;;;;;;;-0.30;99.90;;;;;;4189825;28;19913;-55
2022/02/16 05:35:48;;;;;;;;;;;-0.30;99.90;;;;;;4190586;28;19916;-63
2022/02/16 05:37:49;;;;;;;;;;;-0.30;99.90;;;;;;4191314;28;20335;-59
2022/02/16 05:39:50;;;;;;;;;;;-0.40;99.90;;;;;;4187739;28;19966;-59
2022/02/16 05:41:52;;;;;;;;;;;-0.40;99.90;;;;;;4190471;28;19969;-58
2022/02/16 05:43:53;;;;;;;;;;;-0.50;99.90;;;;;;4189276;28;20331;-57
2022/02/16 05:45:53;;;;;;;;;;;-0.60;99.90;;;;;;4185061;28;20004;-62
2022/02/16 05:47:54;;;;;;;;;;;-0.70;99.90;;;;;;4173592;28;19941;-58
2022/02/16 05:49:55;;;;;;;;;;;-0.70;99.90;;;;;;4181984;28;19925;-60
2022/02/16 05:51:56;;;;;;;;;;;-0.70;99.90;;;;;;4173002;28;19917;-63
2022/02/16 05:53:57;;;;;;;;;;;-0.70;99.90;;;;;;4173626;28;19909;-59
2022/02/16 05:55:58;;;;;;;;;;;-0.60;99.90;;;;;;4172648;28;19951;-66
2022/02/16 05:57:59;;;;;;;;;;;-0.50;99.90;;;;;;4173824;28;19980;-54
2022/02/16 06:00:00;;;;;;;;;;;-0.40;99.90;;;;;;4173296;28;19925;-63
2022/02/16 06:02:03;;;;;;;;;;;-0.40;99.90;;;;;;4156690;28;19955;-68
2022/02/16 06:04:04;;;;;;;;;;;-0.30;99.90;;;;;;4173697;28;19994;-60
2022/02/16 06:06:05;;;;;;;;;;;-0.30;99.90;;;;;;4174437;28;19917;-62
2022/02/16 06:08:06;;;;;;;;;;;-0.20;99.90;;;;;;4156043;28;20510;-58
2022/02/16 06:10:07;;;;;;;;;;;-0.10;99.90;;;;;;4172929;28;19966;-65
2022/02/16 06:12:08;;;;;;;;;;;-0.20;99.90;;;;;;4173152;28;19913;-57
2022/02/16 06:14:09;;;;;;;;;;;-0.10;99.90;;;;;;4173149;28;19925;-59
2022/02/16 06:16:10;;;;;;;;;;;-0.10;99.90;;;;;;4173931;28;19916;-57
2022/02/16 06:18:11;;;;;;;;;;;-0.10;99.90;;;;;;4173192;28;19913;-63
2022/02/16 06:20:12;;;;;;;;;;;0.00;99.90;;;;;;4180979;28;19919;-59
2022/02/16 06:22:13;;;;;;;;;;;0.00;99.90;;;;;;4188971;28;19913;-65
2022/02/16 06:24:15;;;;;;;;;;;0.00;99.90;;;;;;4189997;28;19912;-59
2022/02/16 06:26:15;;;;;;;;;;;0.00;99.90;;;;;;4189511;28;19916;-57
2022/02/16 06:28:16;;;;;;;;;;;0.10;99.90;;;;;;4190062;28;19913;-57
2022/02/16 06:30:18;;;;;;;;;;;0.10;99.90;;;;;;4189134;28;20015;-58
2022/02/16 06:32:18;;;;;;;;;;;0.10;99.90;;;;;;4189907;28;19913;-60
2022/02/16 06:34:19;;;;;;;;;;;0.20;99.90;;;;;;4189397;28;20338;-63
2022/02/16 06:36:21;;;;;;;;;;;0.30;99.90;;;;;;4189675;28;19927;-58
2022/02/16 06:38:22;;;;;;;;;;;0.30;99.90;;;;;;4189790;28;19943;-58
2022/02/16 06:40:26;;;;;;;;;;;0.30;99.90;;;;;;4189127;28;19920;-62
2022/02/16 06:42:27;;;;;;;;;;;0.40;99.90;;;;;;4188676;28;19912;-61
2022/02/16 06:44:28;;;;;;;;;;;0.40;99.90;;;;;;4189399;28;20014;-58
2022/02/16 06:46:29;;;;;;;;;;;0.40;99.90;;;;;;4189063;28;20615;-62
2022/02/16 06:48:30;;;;;;;;;;;0.40;99.90;;;;;;4189046;28;19994;-62
2022/02/16 06:50:30;;;;;;;;;;;0.40;99.90;;;;;;4190124;28;19919;-60
2022/02/16 06:52:31;;;;;;;;;;;0.40;99.90;;;;;;4189276;28;19912;-61
2022/02/16 06:54:32;;;;;;;;;;;0.40;99.90;;;;;;4190089;28;20077;-58
2022/02/16 06:56:33;;;;;;;;;;;0.40;99.90;;;;;;4186981;28;20232;-60
2022/02/16 06:58:34;;;;;;;;;;;0.50;99.90;;;;;;4189341;28;20565;-57
2022/02/16 07:00:35;;;;;;;;;;;0.60;99.90;;;;;;4188598;28;19970;-56
2022/02/16 07:02:47;;;;;;;;;;;0.60;99.90;;;;;;4188700;28;19966;-68
2022/02/16 07:04:48;;;;;;;;;;;0.60;99.90;;;;;;4188488;28;19968;-60
2022/02/16 07:06:49;;;;;;;;;;;0.60;99.90;;;;;;4189410;28;19963;-64
2022/02/16 07:08:50;;;;;;;;;;;0.60;99.90;;;;;;4188747;28;19916;-59
2022/02/16 07:10:51;;;;;;;;;;;0.70;99.90;;;;;;4188950;28;19920;-62
2022/02/16 07:12:52;;;;;;;;;;;0.70;99.90;;;;;;4188923;28;20387;-65
2022/02/16 07:14:56;;;;;;;;;;;0.70;99.90;;;;;;4189179;28;19916;-60
2022/02/16 07:16:58;;;;;;;;;;;0.80;99.90;;;;;;4189280;28;19955;-57
2022/02/16 07:18:59;;;;;;;;;;;0.70;99.90;;;;;;4188735;28;19970;-53
2022/02/16 07:21:00;;;;;;;;;;;0.70;99.90;;;;;;4189047;28;20006;-59
2022/02/16 07:23:03;;;;;;;;;;;0.70;99.90;;;;;;4188639;28;19952;-60
2022/02/16 07:25:04;;;;;;;;;;;0.80;99.90;;;;;;4189396;28;19913;-60
2022/02/16 07:27:05;;;;;;;;;;;0.80;99.90;;;;;;4187957;28;19912;-56
2022/02/16 07:29:06;;;;;;;;;;;0.90;99.90;;;;;;4189360;28;19974;-52
2022/02/16 07:31:07;;;;;;;;;;;0.90;99.90;;;;;;4188127;28;20709;-60
2022/02/16 07:33:08;;;;;;;;;;;0.90;99.90;;;;;;4188850;28;20357;-62
2022/02/16 07:35:10;;;;;;;;;;;0.90;99.90;;;;;;4188918;28;19912;-62
2022/02/16 07:37:11;;;;;;;;;;;0.90;99.90;;;;;;4189326;28;20418;-61
2022/02/16 07:39:12;;;;;;;;;;;1.00;99.90;;;;;;4189058;28;19909;-53
2022/02/16 07:41:13;;;;;;;;;;;1.00;99.90;;;;;;4188534;28;20337;-53
2022/02/16 07:43:14;;;;;;;;;;;1.00;99.90;;;;;;4188722;28;20296;-63
2022/02/16 07:45:15;;;;;;;;;;;1.00;99.90;;;;;;4189021;28;19970;-61
2022/02/16 07:47:16;;;;;;;;;;;1.10;99.90;;;;;;4189349;28;19962;-58
2022/02/16 07:49:17;;;;;;;;;;;1.10;99.90;;;;;;4187589;28;19920;-62
2022/02/16 07:51:18;;;;;;;;;;;1.20;99.90;;;;;;4188089;28;19913;-58
2022/02/16 07:53:19;;;;;;;;;;;1.20;99.90;;;;;;4190478;28;20039;-63
2022/02/16 07:55:20;;;;;;;;;;;1.20;99.90;;;;;;4194567;28;19920;-57
2022/02/16 07:57:21;;;;;;;;;;;1.30;99.90;;;;;;4193929;28;19916;-60
2022/02/16 07:59:23;;;;;;;;;;;1.30;99.90;;;;;;4193598;28;19936;-54
2022/02/16 08:01:24;;;;;;;;;;;1.30;99.90;;;;;;4193474;28;19920;-60
2022/02/16 08:03:27;;;;;;;;;;;1.40;99.90;;;;;;4193648;28;21616;-61
2022/02/16 08:05:28;;;;;;;;;;;1.50;99.90;;;;;;4193705;28;19931;-58
2022/02/16 08:07:29;;;;;;;;;;;1.40;99.90;;;;;;4193690;28;19913;-60
2022/02/16 08:09:30;;;;;;;;;;;1.50;99.90;;;;;;4193381;28;20303;-58
2022/02/16 08:11:31;;;;;;;;;;;1.50;99.90;;;;;;4193397;28;19946;-58
2022/02/16 08:13:32;;;;;;;;;;;1.50;99.90;;;;;;4192728;28;20296;-58
2022/02/16 08:15:34;;;;;;;;;;;1.50;99.90;;;;;;4193921;28;19913;-61
2022/02/16 08:17:34;;;;;;;;;;;1.60;99.90;;;;;;4194359;28;19956;-57
2022/02/16 08:19:36;;;;;;;;;;;1.60;99.90;;;;;;4193885;28;19916;-59
2022/02/16 08:21:37;;;;;;;;;;;1.70;99.90;;;;;;4193821;28;19966;-58
2022/02/16 08:23:38;;;;;;;;;;;1.70;99.90;;;;;;4192674;28;19912;-61
2022/02/16 08:25:40;;;;;;;;;;;1.70;99.90;;;;;;4193858;28;19916;-65
2022/02/16 08:27:45;;;;;;;;;;;1.70;99.90;;;;;;4194005;28;19981;-57
2022/02/16 08:29:46;;;;;;;;;;;1.80;99.90;;;;;;4194210;28;19924;-59
2022/02/16 08:31:46;;;;;;;;;;;1.80;99.90;;;;;;4193324;28;19912;-65
2022/02/16 08:33:47;;;;;;;;;;;1.80;99.90;;;;;;4194690;28;19958;-61
2022/02/16 08:35:48;;;;;;;;;;;1.90;99.90;;;;;;4193796;28;19920;-58
2022/02/16 08:37:49;;;;;;;;;;;2.00;99.90;;;;;;4194511;28;19913;-62
2022/02/16 08:39:50;;;;;;;;;;;2.10;99.90;;;;;;4193827;28;20399;-55
2022/02/16 08:41:51;;;;;;;;;;;2.10;99.90;;;;;;4194209;28;19909;-56
2022/02/16 08:43:53;;;;;;;;;;;2.20;99.90;;;;;;4193738;28;19975;-58
2022/02/16 08:45:54;;;;;;;;;;;2.10;99.90;;;;;;4194305;28;20258;-61
2022/02/16 08:47:55;;;;;;;;;;;2.10;99.90;;;;;;4193940;28;20712;-62
2022/02/16 08:49:56;;;;;;;;;;;2.10;99.90;;;;;;4193814;28;19917;-61
2022/02/16 08:51:57;;;;;;;;;;;2.10;99.90;;;;;;4193946;28;20623;-58
2022/02/16 08:53:59;;;;;;;;;;;2.30;99.90;;;;;;4193674;28;20622;-57
2022/02/16 08:56:00;;;;;;;;;;;2.40;99.90;;;;;;4194252;28;20470;-61
2022/02/16 08:58:01;;;;;;;;;;;2.60;99.90;;;;;;4193171;28;19916;-67
2022/02/16 09:00:03;;;;;;;;;;;2.60;99.90;;;;;;4194272;28;19925;-57
2022/02/16 09:02:04;;;;;;;;;;;2.70;99.90;;;;;;4192884;28;19920;-58
2022/02/16 09:04:05;;;;;;;;;;;2.80;99.90;;;;;;4191779;28;19920;-60
2022/02/16 09:06:06;;;;;;;;;;;2.80;99.90;;;;;;4189377;28;20461;-58
2022/02/16 09:08:07;;;;;;;;;;;2.80;99.90;;;;;;4191826;28;19912;-59
2022/02/16 09:10:09;;;;;;;;;;;2.80;99.90;;;;;;4189924;28;19921;-58
2022/02/16 09:12:10;;;;;;;;;;;2.80;99.90;;;;;;4190830;28;19913;-62
2022/02/16 09:14:11;;;;;;;;;;;2.70;99.90;;;;;;4190809;28;19912;-59
2022/02/16 09:16:12;;;;;;;;;;;2.70;99.90;;;;;;4190914;28;19924;-62
2022/02/16 09:18:17;;;;;;;;;;;2.70;99.90;;;;;;4191215;28;19912;-57
2022/02/16 09:20:18;;;;;;;;;;;2.80;99.90;;;;;;4190340;28;19913;-62
2022/02/16 09:22:19;;;;;;;;;;;2.80;99.90;;;;;;4190897;28;20391;-59
2022/02/16 09:24:20;;;;;;;;;;;2.90;99.90;;;;;;4190713;28;19913;-60
2022/02/16 09:26:21;;;;;;;;;;;3.10;99.90;;;;;;4191363;28;19913;-58
2022/02/16 09:28:22;;;;;;;;;;;3.20;99.90;;;;;;4189201;28;20296;-57
2022/02/16 09:30:23;;;;;;;;;;;3.20;99.90;;;;;;4191192;28;19925;-67
2022/02/16 09:32:24;;;;;;;;;;;3.20;99.90;;;;;;4190665;28;19912;-63
2022/02/16 09:34:25;;;;;;;;;;;3.20;99.90;;;;;;4191420;28;19913;-64
2022/02/16 09:36:30;;;;;;;;;;;3.20;99.90;;;;;;4172331;28;19912;-61
2022/02/16 09:38:31;;;;;;;;;;;3.30;99.90;;;;;;4191082;28;19958;-58
2022/02/16 09:40:32;;;;;;;;;;;3.30;99.90;;;;;;4189944;28;19966;-60
2022/02/16 09:42:33;;;;;;;;;;;3.30;99.90;;;;;;4190967;28;19912;-57
2022/02/16 09:44:34;;;;;;;;;;;3.30;99.90;;;;;;4190714;28;19986;-58
2022/02/16 09:46:35;;;;;;;;;;;3.40;99.90;;;;;;4190651;28;20372;-63
2022/02/16 09:48:36;;;;;;;;;;;3.60;99.90;;;;;;4190830;28;19978;-56
2022/02/16 09:50:37;;;;;;;;;;;3.50;99.90;;;;;;4190578;28;19967;-58
2022/02/16 09:52:39;;;;;;;;;;;3.50;99.90;;;;;;4190003;28;20331;-54
2022/02/16 09:54:40;;;;;;;;;;;3.50;99.90;;;;;;4190257;28;19916;-56
2022/02/16 09:56:41;;;;;;;;;;;3.40;99.90;;;;;;4190093;28;19913;-61
2022/02/16 09:58:43;;;;;;;;;;;3.40;99.90;;;;;;4189300;28;19965;-56
2022/02/16 10:01:02;;;;;;;;;;;3.40;99.90;;;;;;4189902;28;20434;-54
2022/02/16 10:03:10;;;;;;;;;;;3.40;99.90;;;;;;4189645;28;19966;-58
2022/02/16 10:05:12;;;;;;;;;;;3.40;99.90;;;;;;4190368;28;19912;-58
2022/02/16 10:07:20;;;;;;;;;;;3.40;99.90;;;;;;4189147;28;19966;-62
2022/02/16 10:09:23;;;;;;;;;;;3.50;99.90;;;;;;4190127;28;19920;-61
2022/02/16 10:11:24;;;;;;;;;;;3.60;99.90;;;;;;4188660;28;19917;-65
2022/02/16 10:13:24;;;;;;;;;;;3.70;99.90;;;;;;4191075;28;19908;-61
2022/02/16 10:15:41;;;;;;;;;;;3.80;99.90;;;;;;4189690;28;19917;-56
2022/02/16 10:17:43;;;;;;;;;;;3.90;99.90;;;;;;4190276;28;19912;-59
2022/02/16 10:19:47;;;;;;;;;;;3.90;99.90;;;;;;4188286;28;19912;-60
2022/02/16 10:22:05;;;;;;;;;;;3.90;99.90;;;;;;4190350;28;20352;-59
2022/02/16 10:24:18;;;;;;;;;;;3.90;99.90;;;;;;4188844;28;19916;-60
2022/02/16 10:26:19;;;;;;;;;;;4.00;99.90;;;;;;4190349;28;19912;-69
2022/02/16 10:28:21;;;;;;;;;;;4.00;99.90;;;;;;4189408;28;19973;-62
2022/02/16 10:30:22;;;;;;;;;;;4.10;99.90;;;;;;4190118;28;19966;-64
2022/02/16 10:32:31;;;;;;;;;;;4.20;99.90;;;;;;4189365;28;19909;-63
2022/02/16 10:34:51;;;;;;;;;;;4.30;99.90;;;;;;4189642;28;20285;-61
2022/02/16 10:36:52;;;;;;;;;;;4.40;99.90;;;;;;4189120;28;19912;-59
2022/02/16 10:38:54;;;;;;;;;;;4.40;99.90;;;;;;4190024;28;19913;-59
2022/02/16 10:41:04;;;;;;;;;;;4.40;99.90;;;;;;4189720;28;19916;-55
2022/02/16 10:43:05;;;;;;;;;;;4.40;99.90;;;;;;4189837;28;20418;-61
2022/02/16 10:45:08;;;;;;;;;;;4.60;99.90;;;;;;4189092;28;19913;-58
2022/02/16 10:47:10;;;;;;;;;;;4.60;99.90;;;;;;4189586;28;20474;-59
2022/02/16 10:49:16;;;;;;;;;;;4.60;99.90;;;;;;4189090;28;19985;-55
2022/02/16 10:51:18;;;;;;;;;;;4.60;99.90;;;;;;4189043;28;20352;-60
2022/02/16 10:53:25;;;;;;;;;;;4.80;99.90;;;;;;4189244;28;20417;-65
2022/02/16 10:55:43;;;;;;;;;;;4.90;99.90;;;;;;4189075;28;19920;-57
2022/02/16 10:57:44;;;;;;;;;;;5.00;99.90;;;;;;4189715;28;19912;-63
2022/02/16 10:59:45;;;;;;;;;;;5.20;99.90;;;;;;4188781;28;19938;-59
2022/02/16 11:01:46;;;;;;;;;;;5.30;99.90;;;;;;4188721;28;20762;-57
2022/02/16 11:03:51;;;;;;;;;;;5.30;99.90;;;;;;4188891;28;19912;-60
2022/02/16 11:05:53;;;;;;;;;;;5.30;99.90;;;;;;4189398;28;20377;-60
2022/02/16 11:07:55;;;;;;;;;;;5.40;99.90;;;;;;4188714;28;20319;-60
2022/02/16 11:09:57;;;;;;;;;;;5.50;99.90;;;;;;4189927;28;19920;-61
2022/02/16 11:12:00;;;;;;;;;;;5.50;99.90;;;;;;4188576;28;20361;-58
2022/02/16 11:14:03;;;;;;;;;;;5.40;99.90;;;;;;4189781;28;19997;-65
2022/02/16 11:16:04;;;;;;;;;;;5.40;99.90;;;;;;4188306;28;19916;-65
2022/02/16 11:18:16;;;;;;;;;;;5.30;99.90;;;;;;4189361;28;20352;-66
2022/02/16 11:20:18;;;;;;;;;;;5.30;99.90;;;;;;4187957;28;20384;-56
2022/02/16 11:22:21;;;;;;;;;;;5.30;99.90;;;;;;4189324;28;19913;-62
2022/02/16 11:24:32;;;;;;;;;;;5.30;99.90;;;;;;4189120;28;19912;-56
2022/02/16 11:26:38;;;;;;;;;;;5.40;99.90;;;;;;4189322;28;19912;-57
2022/02/16 11:28:39;;;;;;;;;;;5.60;99.90;;;;;;4187702;28;19916;-58
2022/02/16 11:30:47;;;;;;;;;;;5.70;99.90;;;;;;4188955;28;19991;-60
2022/02/16 11:32:48;;;;;;;;;;;5.80;99.90;;;;;;4170646;28;19913;-58
2022/02/16 11:35:07;;;;;;;;;;;5.80;99.90;;;;;;4188481;28;20332;-61
2022/02/16 11:37:09;;;;;;;;;;;5.80;99.90;;;;;;4188657;28;19913;-59
2022/02/16 11:39:09;;;;;;;;;;;5.80;99.90;;;;;;4189374;28;19962;-57
2022/02/16 11:41:26;;;;;;;;;;;5.80;99.90;;;;;;4188992;28;20418;-61
2022/02/16 11:43:46;;;;;;;;;;;5.80;99.90;;;;;;4189289;28;20874;-62
2022/02/16 11:45:48;;;;;;;;;;;5.80;99.90;;;;;;4187639;28;19963;-65
2022/02/16 11:47:49;;;;;;;;;;;5.80;99.90;;;;;;4189298;28;20271;-60
2022/02/16 11:49:50;;;;;;;;;;;5.80;99.90;;;;;;4188266;28;19982;-59
2022/02/16 11:51:51;;;;;;;;;;;5.80;99.90;;;;;;4189071;28;19912;-57
2022/02/16 11:53:52;;;;;;;;;;;5.80;99.90;;;;;;4189110;28;20741;-61